KCMI/CMI METAR and TAF weather

Enter ICAO airport designator
Station Type Date Time Source
KCMI METAR 2019/04/19 21:53 UTC NOAA

KCMI 192153Z 01025G42KT 10SM SCT032 11/03 A2973 RMK AO2 PK WND 01044/2105 SLP069 T01060033


Station Type Date Time Source
KCMI Decoded METAR 2019/04/19 21:53 UTC NOAA

UNIV OF ILLINOIS-WILLARD, IL, United States (KCMI) 40-02N 088-16W 228M
Apr 19, 2019 - 05:53 PM EDT / 2019.04.19 2153 UTC
Wind: from the N (010 degrees) at 29 MPH (25 KT) gusting to 48 MPH (42 KT):0
Visibility: 10 mile(s):0
Sky conditions: partly cloudy
Temperature: 51.1 F (10.6 C)
Dew Point: 37.9 F (3.3 C)
Relative Humidity: 60%
Pressure (altimeter): 29.73 in. Hg (1006 hPa)
ob: KCMI 192153Z 01025G42KT 10SM SCT032 11/03 A2973 RMK AO2 PK WND 01044/2105 SLP069 T01060033
cycle: 22

Station Type Date Time Source
KCMI TAF 2019/04/19 23:33 UTC NOAA

TAF
AMD KCMI 192231Z 1923/2018 01025G40KT P6SM SCT030
FM200100 01020KT P6SM BKN050
FM200300 36018KT P6SM BKN070 WS020/02045KT
FM201300 35016G26KT P6SM FEW250

Example: see airport list